createdAt,value
2016-12-27T00:00:26.361Z,4.7
2016-12-27T00:01:26.341Z,4.62
2016-12-27T00:02:26.309Z,4.72
2016-12-27T00:03:26.296Z,4.69
2016-12-27T00:04:26.281Z,4.73
2016-12-27T00:05:26.254Z,4.62
2016-12-27T00:06:26.237Z,4.75
2016-12-27T00:07:26.317Z,4.73
2016-12-27T00:08:26.190Z,4.64
2016-12-27T00:09:26.169Z,4.7
2016-12-27T00:10:26.150Z,4.67
2016-12-27T00:11:26.127Z,4.72
2016-12-27T00:12:26.206Z,4.69
2016-12-27T00:13:26.089Z,4.64
2016-12-27T00:14:26.071Z,4.73
2016-12-27T00:15:26.047Z,4.57
2016-12-27T00:16:26.027Z,4.67
2016-12-27T00:17:26.008Z,4.69
2016-12-27T00:18:25.979Z,4.7
2016-12-27T00:19:25.965Z,4.72
2016-12-27T00:20:25.941Z,4.7
2016-12-27T00:21:25.923Z,4.64
2016-12-27T00:22:25.900Z,4.61
2016-12-27T00:23:25.879Z,4.59
2016-12-27T00:24:25.868Z,4.61
2016-12-27T00:25:25.860Z,4.62
2016-12-27T00:26:25.815Z,4.61
2016-12-27T00:27:25.798Z,4.65
2016-12-27T00:28:25.775Z,4.62
2016-12-27T00:29:25.754Z,4.59
2016-12-27T00:30:26.049Z,4.64
2016-12-27T00:31:25.711Z,4.59
2016-12-27T00:32:25.688Z,4.61
2016-12-27T00:33:25.677Z,4.61
2016-12-27T00:34:25.651Z,4.54
2016-12-27T00:35:25.632Z,4.55
2016-12-27T00:36:25.841Z,4.54
2016-12-27T00:37:25.584Z,4.57
2016-12-27T00:38:25.880Z,4.59
2016-12-27T00:39:25.544Z,4.62
2016-12-27T00:40:25.527Z,4.58
2016-12-27T00:41:25.501Z,4.67
2016-12-27T00:42:25.491Z,4.65
2016-12-27T00:43:25.877Z,4.58
2016-12-27T00:44:25.441Z,4.58
2016-12-27T00:45:25.732Z,4.54
2016-12-27T00:46:25.395Z,4.52
2016-12-27T00:47:25.392Z,4.47
2016-12-27T00:48:25.359Z,4.47
2016-12-27T00:49:25.336Z,4.46
2016-12-27T00:50:25.628Z,4.46
2016-12-27T00:51:25.324Z,4.43
2016-12-27T00:52:25.592Z,4.42
2016-12-27T00:53:25.357Z,4.39
2016-12-27T00:54:25.231Z,4.4
2016-12-27T00:55:25.214Z,4.44
2016-12-27T00:56:25.189Z,4.46
2016-12-27T00:57:25.167Z,4.42
2016-12-27T00:58:25.156Z,4.46
2016-12-27T00:59:25.127Z,4.43
2016-12-27T01:00:25.106Z,4.44
2016-12-27T01:01:25.087Z,4.44
2016-12-27T01:02:25.061Z,4.4
2016-12-27T01:03:25.047Z,4.42
2016-12-27T01:04:25.022Z,4.42
2016-12-27T01:05:24.998Z,4.47
2016-12-27T01:06:25.294Z,4.5
2016-12-27T01:07:24.956Z,4.54
2016-12-27T01:08:24.936Z,4.62
2016-12-27T01:09:25.237Z,4.58
2016-12-27T01:10:24.896Z,4.61
2016-12-27T01:11:24.904Z,4.61
2016-12-27T01:12:24.859Z,4.47
2016-12-27T01:13:24.835Z,4.57
2016-12-27T01:14:24.811Z,4.62
2016-12-27T01:15:24.790Z,4.59
2016-12-27T01:16:24.771Z,4.61
2016-12-27T01:17:24.750Z,4.59
2016-12-27T01:18:24.725Z,4.59
2016-12-27T01:19:24.723Z,4.65
2016-12-27T01:20:24.684Z,4.64
2016-12-27T01:21:24.663Z,4.61
2016-12-27T01:22:24.659Z,4.61
2016-12-27T01:23:24.627Z,4.58
2016-12-27T01:24:24.914Z,4.59
2016-12-27T01:25:24.589Z,4.55
2016-12-27T01:26:24.876Z,4.59
2016-12-27T01:27:24.538Z,4.52
2016-12-27T01:28:24.842Z,4.59
2016-12-27T01:29:24.500Z,4.62
2016-12-27T01:30:24.479Z,4.59
2016-12-27T01:31:24.483Z,4.5
2016-12-27T01:32:25.057Z,4.5
2016-12-27T01:33:24.412Z,4.51
2016-12-27T01:34:24.808Z,4.43
2016-12-27T01:35:24.687Z,4.43
2016-12-27T01:36:24.667Z,4.5
2016-12-27T01:37:24.648Z,4.51
2016-12-27T01:38:24.309Z,4.52
2016-12-27T01:39:24.291Z,4.55
2016-12-27T01:40:24.903Z,4.54
2016-12-27T01:41:24.568Z,4.62
2016-12-27T01:42:24.232Z,4.62
2016-12-27T01:43:24.212Z,4.65
2016-12-27T01:44:24.183Z,4.69
2016-12-27T01:45:24.168Z,4.8
2016-12-27T01:46:24.148Z,4.72
2016-12-27T01:47:24.123Z,4.79
2016-12-27T01:48:24.104Z,4.89
2016-12-27T01:49:24.085Z,4.91
2016-12-27T01:50:24.060Z,4.98
2016-12-27T01:51:24.040Z,4.95
2016-12-27T01:52:24.029Z,4.91
2016-12-27T01:53:24.000Z,4.95
2016-12-27T01:54:23.980Z,4.98
2016-12-27T01:55:23.960Z,4.99
2016-12-27T01:56:23.941Z,5.04
2016-12-27T01:57:23.914Z,5.02
2016-12-27T01:58:23.899Z,4.96
2016-12-27T01:59:23.877Z,4.94
2016-12-27T02:00:23.856Z,5.01
2016-12-27T02:01:23.836Z,5.09
2016-12-27T02:02:23.819Z,5.12
2016-12-27T02:03:23.799Z,5.12
2016-12-27T02:04:23.770Z,5.14
2016-12-27T02:05:24.062Z,5.12
2016-12-27T02:06:23.728Z,5.07
2016-12-27T02:07:23.714Z,5.13
2016-12-27T02:08:23.689Z,5.1
2016-12-27T02:09:23.675Z,5.07
2016-12-27T02:10:23.652Z,5.04
2016-12-27T02:11:23.942Z,5.13
2016-12-27T02:12:23.609Z,5.09
2016-12-27T02:13:23.587Z,5.09
2016-12-27T02:14:23.570Z,5.13
2016-12-27T02:15:23.859Z,5.05
2016-12-27T02:16:23.843Z,5.1
2016-12-27T02:17:23.508Z,5.1
2016-12-27T02:18:23.485Z,5.09
2016-12-27T02:19:23.464Z,5.12
2016-12-27T02:20:23.471Z,5.14
2016-12-27T02:21:23.423Z,5.1
2016-12-27T02:22:23.425Z,5.12
2016-12-27T02:23:23.387Z,5.1
2016-12-27T02:24:23.361Z,5.12
2016-12-27T02:25:23.350Z,5.1
2016-12-27T02:26:23.637Z,5.13
2016-12-27T02:27:23.306Z,5.13
2016-12-27T02:28:23.283Z,5.12
2016-12-27T02:29:23.263Z,5.16
2016-12-27T02:30:23.241Z,5.13
2016-12-27T02:31:23.248Z,5.16
2016-12-27T02:32:23.198Z,5.12
2016-12-27T02:33:23.185Z,5.12
2016-12-27T02:34:23.162Z,5.1
2016-12-27T02:35:23.138Z,5.09
2016-12-27T02:36:23.524Z,5.09
2016-12-27T02:37:23.103Z,5.09
2016-12-27T02:38:23.081Z,5.05
2016-12-27T02:39:23.070Z,5.04
2016-12-27T02:40:23.035Z,4.94
2016-12-27T02:41:23.021Z,4.98
2016-12-27T02:42:22.997Z,4.98
2016-12-27T02:43:23.295Z,4.92
2016-12-27T02:44:22.958Z,4.98
2016-12-27T02:45:22.959Z,4.86
2016-12-27T02:46:22.917Z,4.98
2016-12-27T02:47:22.894Z,4.96
2016-12-27T02:48:22.880Z,4.96
2016-12-27T02:49:22.854Z,4.92
2016-12-27T02:50:22.839Z,4.91
2016-12-27T02:51:23.133Z,4.89
2016-12-27T02:52:23.111Z,4.88
2016-12-27T02:53:22.780Z,4.96
2016-12-27T02:54:22.760Z,5.02
2016-12-27T02:55:22.737Z,4.96
2016-12-27T02:56:22.714Z,5.01
2016-12-27T02:57:22.693Z,5.05
2016-12-27T02:58:22.671Z,4.96
2016-12-27T02:59:22.682Z,4.94
2016-12-27T03:00:22.637Z,5.02
2016-12-27T03:01:22.614Z,5.05
2016-12-27T03:02:22.608Z,5.07
2016-12-27T03:03:22.881Z,5.02
2016-12-27T03:04:22.553Z,5.07
2016-12-27T03:05:22.535Z,5.1
2016-12-27T03:06:22.517Z,5.02
2016-12-27T03:07:22.491Z,5.12
2016-12-27T03:08:22.477Z,5.13
2016-12-27T03:09:22.445Z,5.13
2016-12-27T03:10:22.436Z,5.05
2016-12-27T03:11:22.408Z,5.1
2016-12-27T03:12:22.385Z,5.12
2016-12-27T03:13:22.365Z,5.09
2016-12-27T03:14:22.345Z,5.09
2016-12-27T03:15:22.639Z,5.05
2016-12-27T03:16:22.303Z,5.12
2016-12-27T03:17:22.282Z,5.09
2016-12-27T03:18:22.267Z,5.1
2016-12-27T03:19:22.244Z,5.07
2016-12-27T03:20:22.224Z,5.1
2016-12-27T03:21:22.521Z,5.09
2016-12-27T03:22:22.184Z,5.12
2016-12-27T03:23:22.162Z,5.1
2016-12-27T03:24:22.143Z,5.16
2016-12-27T03:25:22.123Z,5.13
2016-12-27T03:26:22.106Z,5.1
2016-12-27T03:27:22.390Z,5.12
2016-12-27T03:28:22.376Z,5.17
2016-12-27T03:29:22.039Z,5.16
2016-12-27T03:30:22.018Z,5.19
2016-12-27T03:31:21.999Z,5.2
2016-12-27T03:32:22.295Z,5.17
2016-12-27T03:33:21.960Z,5.13
2016-12-27T03:34:21.939Z,5.13
2016-12-27T03:35:21.916Z,5.1
2016-12-27T03:36:21.904Z,5.12
2016-12-27T03:37:21.878Z,5.16
2016-12-27T03:38:22.171Z,5.04
2016-12-27T03:39:21.832Z,5.13
2016-12-27T03:40:21.820Z,5.09
2016-12-27T03:41:21.789Z,5.14
2016-12-27T03:42:21.782Z,5.09
2016-12-27T03:43:21.755Z,5.12
2016-12-27T03:44:21.758Z,5.13
2016-12-27T03:45:21.715Z,5.05
2016-12-27T03:46:21.693Z,5.14
2016-12-27T03:47:21.678Z,5.14
2016-12-27T03:48:21.654Z,5.12
2016-12-27T03:49:21.635Z,5.1
2016-12-27T03:50:21.611Z,5.14
2016-12-27T03:51:21.593Z,5.14
2016-12-27T03:52:21.576Z,5.22
2016-12-27T03:53:21.552Z,5.14
2016-12-27T03:54:21.841Z,5.2
2016-12-27T03:55:21.511Z,5.16
2016-12-27T03:56:21.493Z,5.17
2016-12-27T03:57:21.473Z,5.17
2016-12-27T03:58:21.453Z,5.09
2016-12-27T03:59:21.428Z,5.17
2016-12-27T04:00:21.412Z,5.17
2016-12-27T04:01:21.390Z,5.2
2016-12-27T04:02:21.367Z,5.22
2016-12-27T04:03:21.660Z,5.16
2016-12-27T04:04:21.329Z,5.19
2016-12-27T04:05:21.310Z,5.17
2016-12-27T04:06:21.295Z,5.14
2016-12-27T04:07:21.265Z,5.19
2016-12-27T04:08:21.254Z,5.12
2016-12-27T04:09:21.245Z,5.12
2016-12-27T04:10:21.206Z,5.16
2016-12-27T04:11:21.222Z,5.14
2016-12-27T04:12:21.164Z,5.16
2016-12-27T04:13:21.143Z,5.16
2016-12-27T04:14:21.123Z,5.2
2016-12-27T04:15:21.444Z,5.19
2016-12-27T04:16:21.093Z,5.16
2016-12-27T04:17:21.069Z,5.16
2016-12-27T04:18:21.047Z,5.17
2016-12-27T04:19:21.032Z,5.17
2016-12-27T04:20:21.005Z,5.17
2016-12-27T04:21:20.988Z,5.22
2016-12-27T04:22:20.969Z,5.13
2016-12-27T04:23:20.946Z,5.14
2016-12-27T04:24:20.928Z,5.12
2016-12-27T04:25:20.909Z,5.23
2016-12-27T04:26:20.884Z,5.25
2016-12-27T04:27:20.894Z,5.14
2016-12-27T04:28:21.163Z,5.16
2016-12-27T04:29:20.824Z,5.13
2016-12-27T04:30:20.810Z,5.16
2016-12-27T04:31:20.811Z,5.16
2016-12-27T04:32:21.078Z,5.22
2016-12-27T04:33:20.744Z,5.19
2016-12-27T04:34:20.725Z,5.1
2016-12-27T04:35:21.020Z,5.1
2016-12-27T04:36:20.691Z,5.13
2016-12-27T04:37:21.178Z,5.05
2016-12-27T04:38:20.652Z,5.13
2016-12-27T04:39:20.625Z,5.04
2016-12-27T04:40:20.607Z,5.04
2016-12-27T04:41:20.585Z,5.1
2016-12-27T04:42:20.566Z,5.13
2016-12-27T04:43:20.543Z,5.12
2016-12-27T04:44:20.835Z,5.12
2016-12-27T04:45:20.504Z,5.12
2016-12-27T04:46:20.489Z,5.09
2016-12-27T04:47:20.463Z,5.09
2016-12-27T04:48:20.445Z,5.13
2016-12-27T04:49:20.423Z,5.12
2016-12-27T04:50:20.404Z,5.14
2016-12-27T04:51:20.388Z,5.14
2016-12-27T04:52:20.361Z,5.17
2016-12-27T04:53:20.351Z,5.17
2016-12-27T04:54:20.318Z,5.19
2016-12-27T04:55:20.301Z,5.17
2016-12-27T04:56:20.283Z,5.16
2016-12-27T04:57:20.578Z,5.13
2016-12-27T04:58:20.244Z,5.13
2016-12-27T04:59:20.220Z,5.13
2016-12-27T05:00:20.203Z,5.13
2016-12-27T05:01:20.181Z,5.1
2016-12-27T05:02:20.475Z,5.13
2016-12-27T05:03:20.459Z,5.13
2016-12-27T05:04:20.440Z,5.05
2016-12-27T05:05:20.134Z,5.05
2016-12-27T05:06:20.081Z,4.98
2016-12-27T05:07:20.059Z,5.04
2016-12-27T05:08:20.043Z,4.99
2016-12-27T05:09:20.018Z,4.96
2016-12-27T05:10:20.004Z,4.99
2016-12-27T05:11:20.298Z,5.02
2016-12-27T05:12:19.984Z,5.05
2016-12-27T05:13:20.245Z,5.01
2016-12-27T05:14:20.230Z,5.05
2016-12-27T05:15:20.206Z,5.04
2016-12-27T05:16:19.873Z,4.99
2016-12-27T05:17:19.856Z,5.05
2016-12-27T05:18:19.833Z,5.02
2016-12-27T05:19:19.822Z,4.99
2016-12-27T05:20:19.790Z,4.96
2016-12-27T05:21:19.780Z,4.99
2016-12-27T05:22:19.751Z,4.92
2016-12-27T05:23:19.732Z,4.92
2016-12-27T05:24:19.723Z,4.95
2016-12-27T05:25:19.691Z,4.99
2016-12-27T05:26:19.675Z,4.98
2016-12-27T05:27:19.649Z,4.95
2016-12-27T05:28:19.633Z,4.92
2016-12-27T05:29:19.925Z,4.96
2016-12-27T05:30:19.591Z,4.86
2016-12-27T05:31:19.573Z,4.91
2016-12-27T05:32:19.548Z,4.91
2016-12-27T05:33:19.531Z,4.92
2016-12-27T05:34:19.507Z,4.94
2016-12-27T05:35:19.496Z,4.89
2016-12-27T05:36:19.468Z,4.89
2016-12-27T05:37:19.448Z,4.91
2016-12-27T05:38:19.443Z,4.99
2016-12-27T05:39:19.725Z,4.95
2016-12-27T05:40:19.401Z,4.98
2016-12-27T05:41:19.366Z,4.98
2016-12-27T05:42:19.342Z,4.89
2016-12-27T05:43:19.328Z,4.91
2016-12-27T05:44:19.309Z,4.91
2016-12-27T05:45:19.286Z,4.94
2016-12-27T05:46:19.267Z,5.02
2016-12-27T05:47:19.239Z,4.94
2016-12-27T05:48:19.227Z,4.92
2016-12-27T05:49:19.203Z,4.98
2016-12-27T05:50:19.194Z,4.95
2016-12-27T05:51:19.167Z,4.94
2016-12-27T05:52:19.147Z,4.94
2016-12-27T05:53:19.121Z,4.92
2016-12-27T05:54:19.098Z,4.98
2016-12-27T05:55:19.084Z,5.01
2016-12-27T05:56:19.061Z,4.98
2016-12-27T05:57:19.041Z,4.88
2016-12-27T05:58:19.023Z,4.91
2016-12-27T05:59:18.999Z,4.83
2016-12-27T06:00:18.979Z,4.96
2016-12-27T06:01:18.959Z,4.88
2016-12-27T06:02:18.933Z,4.91
2016-12-27T06:03:18.923Z,4.96
2016-12-27T06:04:19.208Z,4.98
2016-12-27T06:05:18.875Z,4.92
2016-12-27T06:06:18.855Z,4.89
2016-12-27T06:07:18.837Z,4.89
2016-12-27T06:08:18.818Z,4.86
2016-12-27T06:09:18.826Z,4.83
2016-12-27T06:10:18.773Z,4.92
2016-12-27T06:11:18.761Z,4.94
2016-12-27T06:12:18.738Z,4.79
2016-12-27T06:13:18.713Z,4.77
2016-12-27T06:14:18.700Z,4.79
2016-12-27T06:15:18.684Z,4.76
2016-12-27T06:16:18.661Z,4.79
2016-12-27T06:17:18.640Z,4.79
2016-12-27T06:18:18.609Z,4.86
2016-12-27T06:19:18.595Z,4.77
2016-12-27T06:20:18.573Z,4.79
2016-12-27T06:21:18.554Z,4.89
2016-12-27T06:22:18.530Z,4.79
2016-12-27T06:23:18.518Z,4.79
2016-12-27T06:24:18.486Z,4.73
2016-12-27T06:25:18.466Z,4.76
2016-12-27T06:26:18.453Z,4.75
2016-12-27T06:27:18.742Z,4.75
2016-12-27T06:28:18.411Z,4.76
2016-12-27T06:29:18.384Z,4.77
2016-12-27T06:30:18.366Z,4.8
2016-12-27T06:31:18.347Z,4.79
2016-12-27T06:32:18.329Z,4.83
2016-12-27T06:33:18.619Z,4.77
2016-12-27T06:34:18.285Z,4.77
2016-12-27T06:35:18.584Z,4.79
2016-12-27T06:36:18.246Z,4.86
2016-12-27T06:37:18.431Z,4.96
2016-12-27T06:38:18.207Z,4.92
2016-12-27T06:39:18.184Z,4.91
2016-12-27T06:40:18.164Z,4.99
2016-12-27T06:41:18.144Z,4.96
2016-12-27T06:42:18.123Z,5.04
2016-12-27T06:43:18.104Z,4.95
2016-12-27T06:44:18.084Z,4.96
2016-12-27T06:45:18.069Z,4.88
2016-12-27T06:46:18.039Z,4.91
2016-12-27T06:47:18.342Z,4.94
2016-12-27T06:48:18.002Z,4.94
2016-12-27T06:49:17.983Z,4.98
2016-12-27T06:50:17.961Z,4.88
2016-12-27T06:51:17.946Z,4.89
2016-12-27T06:52:17.920Z,4.91
2016-12-27T06:53:17.904Z,4.8
2016-12-27T06:54:17.888Z,4.88
2016-12-27T06:55:17.855Z,4.8
2016-12-27T06:56:17.842Z,4.92
2016-12-27T06:57:17.816Z,4.76
2016-12-27T06:58:17.805Z,4.88
2016-12-27T06:59:18.089Z,4.8
2016-12-27T07:00:18.073Z,4.8
2016-12-27T07:01:17.762Z,4.77
2016-12-27T07:02:17.719Z,4.84
2016-12-27T07:03:18.005Z,4.88
2016-12-27T07:04:17.686Z,4.86
2016-12-27T07:05:17.709Z,4.83
2016-12-27T07:06:17.639Z,4.8
2016-12-27T07:07:17.616Z,4.91
2016-12-27T07:08:17.905Z,4.88
2016-12-27T07:09:17.625Z,4.83
2016-12-27T07:10:17.549Z,4.83
2016-12-27T07:11:17.841Z,4.79
2016-12-27T07:12:17.509Z,4.77
2016-12-27T07:13:17.487Z,4.86
2016-12-27T07:14:17.785Z,4.79
2016-12-27T07:15:17.761Z,4.73
2016-12-27T07:16:17.434Z,4.79
2016-12-27T07:17:17.722Z,4.72
2016-12-27T07:18:17.389Z,4.7
2016-12-27T07:19:17.370Z,4.62
2016-12-27T07:20:17.346Z,4.7
2016-12-27T07:21:17.328Z,4.72
2016-12-27T07:22:17.307Z,4.64
2016-12-27T07:23:17.290Z,4.76
2016-12-27T07:24:17.595Z,4.77
2016-12-27T07:25:17.555Z,4.67
2016-12-27T07:26:17.230Z,4.75
2016-12-27T07:27:17.201Z,4.77
2016-12-27T07:28:17.496Z,4.86
2016-12-27T07:29:17.165Z,4.89
2016-12-27T07:30:17.138Z,4.86
2016-12-27T07:31:17.431Z,4.89
2016-12-27T07:32:17.102Z,4.84
2016-12-27T07:33:17.077Z,4.77
2016-12-27T07:34:17.060Z,4.83
2016-12-27T07:35:17.032Z,4.76
2016-12-27T07:36:17.016Z,4.86
2016-12-27T07:37:17.000Z,4.83
2016-12-27T07:38:17.029Z,4.79
2016-12-27T07:39:16.951Z,4.88
2016-12-27T07:40:16.937Z,4.77
2016-12-27T07:41:16.915Z,4.86
2016-12-27T07:42:16.897Z,4.89
2016-12-27T07:43:16.898Z,4.83
2016-12-27T07:44:16.852Z,4.88
2016-12-27T07:45:16.832Z,4.72
2016-12-27T07:46:16.818Z,4.79
2016-12-27T07:47:16.790Z,4.72
2016-12-27T07:48:16.770Z,4.75
2016-12-27T07:49:17.068Z,4.7
2016-12-27T07:50:17.043Z,4.75
2016-12-27T07:51:16.708Z,4.7
2016-12-27T07:52:16.691Z,4.67
2016-12-27T07:53:16.673Z,4.65
2016-12-27T07:54:16.972Z,4.69
2016-12-27T07:55:16.624Z,4.67
2016-12-27T07:56:16.925Z,4.65
2016-12-27T07:57:16.585Z,4.62
2016-12-27T07:58:16.563Z,4.59
2016-12-27T07:59:16.550Z,4.67
2016-12-27T08:00:16.520Z,4.61
2016-12-27T08:01:16.505Z,4.62
2016-12-27T08:02:16.482Z,4.61
2016-12-27T08:03:16.461Z,4.67
2016-12-27T08:04:16.755Z,4.67
2016-12-27T08:05:16.420Z,4.61
2016-12-27T08:06:16.402Z,4.67
2016-12-27T08:07:16.379Z,4.67
2016-12-27T08:08:16.361Z,4.65
2016-12-27T08:09:16.344Z,4.72
2016-12-27T08:10:16.322Z,4.64
2016-12-27T08:11:16.292Z,4.7
2016-12-27T08:12:16.279Z,4.61
2016-12-27T08:13:16.252Z,4.75
2016-12-27T08:14:16.239Z,4.64
2016-12-27T08:15:16.524Z,4.69
2016-12-27T08:16:16.195Z,4.67
2016-12-27T08:17:16.174Z,4.7
2016-12-27T08:18:16.155Z,4.67
2016-12-27T08:19:16.132Z,4.67
2016-12-27T08:20:16.111Z,4.77
2016-12-27T08:21:16.096Z,4.69
2016-12-27T08:22:16.078Z,4.83
2016-12-27T08:23:16.051Z,4.77
2016-12-27T08:24:16.035Z,4.91
2016-12-27T08:25:16.018Z,4.79
2016-12-27T08:26:15.994Z,4.77
2016-12-27T08:27:15.969Z,4.76
2016-12-27T08:28:15.954Z,4.83
2016-12-27T08:29:15.934Z,4.7
2016-12-27T08:30:16.035Z,4.73
2016-12-27T08:31:16.532Z,4.76
2016-12-27T08:32:16.186Z,4.8
2016-12-27T08:33:15.853Z,4.77
2016-12-27T08:34:16.143Z,4.67
2016-12-27T08:35:16.133Z,4.64
2016-12-27T08:36:15.790Z,4.67
2016-12-27T08:37:15.976Z,4.62
2016-12-27T08:38:15.747Z,4.67
2016-12-27T08:39:15.728Z,4.62
2016-12-27T08:40:15.707Z,4.7
2016-12-27T08:41:15.689Z,4.76
2016-12-27T08:42:15.989Z,4.7
2016-12-27T08:43:15.665Z,4.62
2016-12-27T08:44:15.633Z,4.79
2016-12-27T08:45:15.607Z,4.75
2016-12-27T08:46:15.901Z,4.73
2016-12-27T08:47:15.569Z,4.73
2016-12-27T08:48:15.548Z,4.7
2016-12-27T08:49:15.528Z,4.75
2016-12-27T08:50:16.140Z,4.75
2016-12-27T08:51:15.485Z,4.76
2016-12-27T08:52:15.777Z,4.94
2016-12-27T08:53:15.446Z,4.86
2016-12-27T08:54:15.429Z,4.91
2016-12-27T08:55:15.404Z,4.94
2016-12-27T08:56:15.388Z,4.94
2016-12-27T08:57:15.677Z,4.99
2016-12-27T08:58:15.351Z,5.07
2016-12-27T08:59:15.321Z,5.09
2016-12-27T09:00:15.328Z,5.16
2016-12-27T09:01:15.285Z,5.16
2016-12-27T09:02:15.263Z,5.3
2016-12-27T09:03:15.245Z,5.32
2016-12-27T09:04:15.225Z,5.43
2016-12-27T09:05:15.207Z,5.43
2016-12-27T09:06:15.549Z,5.5
2016-12-27T09:07:15.161Z,5.52
2016-12-27T09:08:15.148Z,5.57
2016-12-27T09:09:15.126Z,5.66
2016-12-27T09:10:15.108Z,5.71
2016-12-27T09:11:15.085Z,5.78
2016-12-27T09:12:15.065Z,5.71
2016-12-27T09:13:15.096Z,5.7
2016-12-27T09:14:15.032Z,5.63
2016-12-27T09:15:15.008Z,5.63
2016-12-27T09:16:14.992Z,5.66
2016-12-27T09:17:14.970Z,5.57
2016-12-27T09:18:14.949Z,5.63
2016-12-27T09:19:14.929Z,5.53
2016-12-27T09:20:14.912Z,5.57
2016-12-27T09:21:14.895Z,5.55
2016-12-27T09:22:14.872Z,5.57
2016-12-27T09:23:14.856Z,5.57
2016-12-27T09:24:15.173Z,5.56
2016-12-27T09:25:14.822Z,5.6
2016-12-27T09:26:14.797Z,5.66
2016-12-27T09:27:14.775Z,5.67
2016-12-27T09:28:14.763Z,5.71
2016-12-27T09:29:14.742Z,5.7
2016-12-27T09:30:14.717Z,5.74
2016-12-27T09:31:14.711Z,5.7
2016-12-27T09:32:14.689Z,5.6
2016-12-27T09:33:14.972Z,5.71
2016-12-27T09:34:14.642Z,5.78
2016-12-27T09:35:14.628Z,5.73
2016-12-27T09:36:14.605Z,5.78
2016-12-27T09:37:14.586Z,5.81
2016-12-27T09:38:14.565Z,5.88
2016-12-27T09:39:14.579Z,5.85
2016-12-27T09:40:14.874Z,6
2016-12-27T09:41:14.845Z,6.09
2016-12-27T09:42:14.487Z,6.16
2016-12-27T09:43:14.538Z,6.29
2016-12-27T09:44:14.454Z,6.32
2016-12-27T09:45:14.432Z,6.51
2016-12-27T09:46:14.408Z,6.51
2016-12-27T09:47:14.727Z,6.53
2016-12-27T09:48:14.386Z,6.62
2016-12-27T09:49:14.357Z,6.61
2016-12-27T09:50:14.340Z,6.77
2016-12-27T09:51:14.325Z,6.76
2016-12-27T09:52:14.308Z,6.68
2016-12-27T09:53:14.981Z,6.65
2016-12-27T09:54:14.580Z,6.73
2016-12-27T09:55:14.245Z,6.76
2016-12-27T09:56:14.231Z,6.76
2016-12-27T09:57:14.216Z,6.73
2016-12-27T09:58:14.196Z,6.73
2016-12-27T09:59:14.173Z,6.77
2016-12-27T10:00:14.159Z,6.8
2016-12-27T10:01:14.143Z,6.81
2016-12-27T10:02:14.132Z,6.99
2016-12-27T10:03:14.113Z,7.16
2016-12-27T10:04:14.415Z,7.26
2016-12-27T10:05:14.073Z,7.52
2016-12-27T10:06:14.059Z,7.75
2016-12-27T10:07:14.037Z,8.03
2016-12-27T10:08:14.020Z,8.22
2016-12-27T10:09:14.007Z,8.36
2016-12-27T10:10:14.297Z,8.62
2016-12-27T10:11:14.018Z,8.76
2016-12-27T10:12:13.950Z,8.86
2016-12-27T10:13:13.937Z,8.96
2016-12-27T10:14:13.919Z,9.12
2016-12-27T10:15:13.910Z,8.94
2016-12-27T10:16:13.884Z,9.13
2016-12-27T10:17:13.874Z,9.3
2016-12-27T10:18:13.883Z,9.46
2016-12-27T10:19:13.834Z,9.38
2016-12-27T10:20:13.820Z,9.25
2016-12-27T10:21:13.811Z,9.35
2016-12-27T10:22:13.791Z,9.28
2016-12-27T10:23:13.777Z,9.39
2016-12-27T10:24:13.764Z,9.25
2016-12-27T10:25:13.742Z,9.39
2016-12-27T10:26:13.729Z,9.39
2016-12-27T10:27:14.029Z,9.27
2016-12-27T10:28:13.701Z,9.21
2016-12-27T10:29:14.012Z,9.27
2016-12-27T10:30:13.668Z,9.02
2016-12-27T10:31:13.964Z,8.86
2016-12-27T10:32:13.637Z,8.79
2016-12-27T10:33:13.621Z,8.72
2016-12-27T10:34:13.606Z,8.73
2016-12-27T10:35:13.590Z,8.57
2016-12-27T10:36:13.574Z,8.73
2016-12-27T10:37:13.768Z,8.6
2016-12-27T10:38:13.556Z,8.81
2016-12-27T10:39:13.577Z,8.76
2016-12-27T10:40:13.514Z,8.71
2016-12-27T10:41:13.815Z,8.9
2016-12-27T10:42:13.485Z,8.83
2016-12-27T10:43:13.472Z,8.81
2016-12-27T10:44:13.508Z,8.91
2016-12-27T10:45:13.445Z,9.2
2016-12-27T10:46:13.424Z,9.18
2016-12-27T10:47:13.414Z,9.21
2016-12-27T10:48:13.400Z,9.28
2016-12-27T10:49:13.380Z,9.02
2016-12-27T10:50:13.371Z,9.12
2016-12-27T10:51:13.359Z,9.15
2016-12-27T10:52:13.337Z,9.15
2016-12-27T10:53:13.319Z,9.16
2016-12-27T10:54:13.308Z,9.06
2016-12-27T10:55:13.608Z,9.18
2016-12-27T10:56:13.622Z,9.35
2016-12-27T10:57:13.267Z,9.49
2016-12-27T10:58:13.569Z,9.45
2016-12-27T10:59:13.290Z,9.45
2016-12-27T11:00:13.546Z,9.58
2016-12-27T11:01:13.207Z,9.43
2016-12-27T11:02:13.195Z,9.48
2016-12-27T11:03:13.176Z,9.57
2016-12-27T11:04:13.165Z,9.67
2016-12-27T11:05:13.151Z,9.71
2016-12-27T11:06:13.143Z,9.61
2016-12-27T11:07:13.132Z,9.42
2016-12-27T11:08:13.112Z,9.27
2016-12-27T11:09:13.102Z,9.16
2016-12-27T11:10:13.089Z,8.97
2016-12-27T11:11:13.067Z,9.05
2016-12-27T11:12:13.367Z,9.18
2016-12-27T11:13:13.353Z,9.38
2016-12-27T11:14:13.027Z,9.45
2016-12-27T11:15:13.013Z,9.52
2016-12-27T11:16:13.313Z,9.68
2016-12-27T11:17:12.986Z,9.71
2016-12-27T11:18:12.981Z,9.86
2016-12-27T11:19:12.992Z,9.63
2016-12-27T11:20:12.953Z,9.75
2016-12-27T11:21:12.932Z,9.67
2016-12-27T11:22:12.921Z,9.61
2016-12-27T11:23:13.230Z,9.75
2016-12-27T11:24:12.888Z,9.7
2016-12-27T11:25:12.883Z,9.58
2016-12-27T11:26:12.864Z,9.6
2016-12-27T11:27:12.846Z,9.38
2016-12-27T11:28:12.841Z,9.35
2016-12-27T11:29:12.819Z,9.28
2016-12-27T11:30:12.804Z,9.25
2016-12-27T11:31:12.794Z,9.23
2016-12-27T11:32:12.778Z,9.27
2016-12-27T11:33:12.797Z,9.1
2016-12-27T11:34:12.747Z,9.09
2016-12-27T11:35:12.734Z,9.04
2016-12-27T11:36:12.715Z,8.94
2016-12-27T11:37:13.024Z,8.94
2016-12-27T11:38:12.690Z,9.02
2016-12-27T11:39:12.741Z,8.97
2016-12-27T11:40:12.996Z,8.97
2016-12-27T11:41:13.287Z,8.9
2016-12-27T11:42:12.636Z,8.93
2016-12-27T11:43:12.617Z,8.94
2016-12-27T11:44:12.606Z,8.88
2016-12-27T11:45:12.592Z,8.86
2016-12-27T11:46:12.570Z,8.86
2016-12-27T11:47:12.871Z,8.91
2016-12-27T11:48:12.858Z,8.87
2016-12-27T11:49:12.861Z,8.86
2016-12-27T11:50:12.838Z,8.83
2016-12-27T11:51:12.501Z,8.86
2016-12-27T11:52:12.482Z,8.87
2016-12-27T11:53:12.478Z,8.94
2016-12-27T11:54:12.456Z,9.01
2016-12-27T11:55:12.740Z,9.09
2016-12-27T11:56:12.737Z,9.04
2016-12-27T11:57:12.405Z,9.06
2016-12-27T11:58:12.396Z,9.01
2016-12-27T11:59:12.377Z,8.99
2016-12-27T12:00:12.356Z,9.06
2016-12-27T12:01:12.350Z,9.01
2016-12-27T12:02:12.331Z,8.99
2016-12-27T12:03:12.318Z,9.05
2016-12-27T12:04:12.301Z,9.04
2016-12-27T12:05:12.339Z,9.05
2016-12-27T12:06:12.269Z,9.02
2016-12-27T12:07:12.578Z,9.15
2016-12-27T12:08:12.555Z,9.2
2016-12-27T12:09:12.536Z,9.28
2016-12-27T12:10:12.309Z,9.28
2016-12-27T12:11:12.226Z,9.25
2016-12-27T12:12:12.186Z,9.3
2016-12-27T12:13:12.168Z,9.28
2016-12-27T12:14:12.157Z,9.27
2016-12-27T12:15:12.236Z,9.24
2016-12-27T12:16:12.120Z,9.24
2016-12-27T12:17:12.108Z,9.35
2016-12-27T12:18:12.408Z,9.58
2016-12-27T12:19:12.393Z,9.6
2016-12-27T12:20:12.065Z,9.78
2016-12-27T12:21:12.367Z,10.04
2016-12-27T12:22:12.348Z,9.93
2016-12-27T12:23:12.018Z,9.83
2016-12-27T12:24:12.006Z,10.14
2016-12-27T12:25:12.620Z,10.43
2016-12-27T12:26:12.295Z,10.55
2016-12-27T12:27:11.976Z,10.7
2016-12-27T12:28:12.269Z,10.96
2016-12-27T12:29:11.944Z,11.11
2016-12-27T12:30:11.932Z,11.28
2016-12-27T12:31:11.918Z,11.29
2016-12-27T12:32:12.217Z,11.53
2016-12-27T12:33:12.208Z,11.75
2016-12-27T12:34:11.880Z,11.85
2016-12-27T12:35:12.181Z,11.82
2016-12-27T12:36:11.853Z,11.87
2016-12-27T12:37:12.049Z,12.12
2016-12-27T12:38:11.862Z,12.16
2016-12-27T12:39:11.824Z,11.89
2016-12-27T12:40:11.813Z,11.96
2016-12-27T12:41:11.809Z,12.21
2016-12-27T12:42:11.792Z,12.38
2016-12-27T12:43:11.786Z,12.42
2016-12-27T12:44:11.772Z,12.38
2016-12-27T12:45:12.073Z,12.05
2016-12-27T12:46:11.756Z,11.62
2016-12-27T12:47:11.749Z,11.2
2016-12-27T12:48:11.738Z,11.11
2016-12-27T12:49:11.729Z,11.24
2016-12-27T12:50:11.718Z,11.14
2016-12-27T12:51:11.705Z,11.5
2016-12-27T12:52:11.694Z,11.32
2016-12-27T12:53:11.689Z,11.29
2016-12-27T12:54:11.681Z,11.09
2016-12-27T12:55:11.982Z,11.09
2016-12-27T12:56:11.661Z,10.96
2016-12-27T12:57:11.650Z,11.38
2016-12-27T12:58:11.946Z,11.85
2016-12-27T12:59:11.943Z,12.23
2016-12-27T13:00:11.622Z,12.48
2016-12-27T13:01:12.036Z,12.66
2016-12-27T13:02:11.600Z,12.97
2016-12-27T13:03:11.920Z,12.85
2016-12-27T13:04:11.578Z,12.7
2016-12-27T13:05:11.573Z,12.62
2016-12-27T13:06:11.564Z,12.49
2016-12-27T13:07:11.593Z,12.27
2016-12-27T13:08:11.542Z,11.78
2016-12-27T13:09:11.850Z,11.62
2016-12-27T13:10:11.524Z,11.68
2016-12-27T13:11:11.563Z,11.97
2016-12-27T13:12:11.501Z,12.24
2016-12-27T13:13:11.852Z,12.49
2016-12-27T13:14:11.807Z,12.64
2016-12-27T13:15:11.482Z,12.64
2016-12-27T13:16:11.476Z,11.93
2016-12-27T13:17:11.776Z,11.8
2016-12-27T13:18:11.450Z,11.5
2016-12-27T13:19:11.441Z,11.34